sensor_id;sensor_type;location;lat;lon;timestamp;pressure;altitude;pressure_sealevel;temperature;humidity
21236;BME280;10775;42.678;26.324;2023-05-11T00:00:30;99163.44;;;14.64;72.75
21236;BME280;10775;42.678;26.324;2023-05-11T00:02:56;99161.00;;;14.57;72.91
21236;BME280;10775;42.678;26.324;2023-05-11T00:05:21;99156.19;;;14.41;73.18
21236;BME280;10775;42.678;26.324;2023-05-11T00:07:47;99157.84;;;14.45;73.41
21236;BME280;10775;42.678;26.324;2023-05-11T00:10:12;99164.72;;;13.83;74.30
21236;BME280;10775;42.678;26.324;2023-05-11T00:12:38;99167.97;;;13.59;76.79
21236;BME280;10775;42.678;26.324;2023-05-11T00:15:03;99168.09;;;13.88;76.35
21236;BME280;10775;42.678;26.324;2023-05-11T00:17:29;99159.03;;;14.33;74.35
21236;BME280;10775;42.678;26.324;2023-05-11T00:19:54;99164.16;;;14.05;74.30
21236;BME280;10775;42.678;26.324;2023-05-11T00:22:20;99159.00;;;14.34;73.93
21236;BME280;10775;42.678;26.324;2023-05-11T00:24:45;99162.72;;;14.26;73.43
21236;BME280;10775;42.678;26.324;2023-05-11T00:27:11;99180.16;;;13.96;73.95
21236;BME280;10775;42.678;26.324;2023-05-11T00:29:36;99179.13;;;13.67;76.07
21236;BME280;10775;42.678;26.324;2023-05-11T00:32:02;99171.81;;;11.67;69.52
21236;BME280;10775;42.678;26.324;2023-05-11T00:34:27;99176.63;;;12.41;77.92
21236;BME280;10775;42.678;26.324;2023-05-11T00:36:53;99174.94;;;12.38;81.22
21236;BME280;10775;42.678;26.324;2023-05-11T00:39:18;99172.66;;;13.44;79.03
21236;BME280;10775;42.678;26.324;2023-05-11T00:41:44;99172.69;;;14.13;75.18
21236;BME280;10775;42.678;26.324;2023-05-11T00:44:09;99173.19;;;13.60;75.99
21236;BME280;10775;42.678;26.324;2023-05-11T00:46:35;99167.63;;;14.07;75.22
21236;BME280;10775;42.678;26.324;2023-05-11T00:49:01;99171.25;;;13.31;66.81
21236;BME280;10775;42.678;26.324;2023-05-11T00:51:27;99172.78;;;12.59;78.79
21236;BME280;10775;42.678;26.324;2023-05-11T00:53:53;99176.00;;;13.53;78.37
21236;BME280;10775;42.678;26.324;2023-05-11T00:56:18;99171.84;;;14.12;74.84
21236;BME280;10775;42.678;26.324;2023-05-11T00:58:44;99168.59;;;14.03;74.26
21236;BME280;10775;42.678;26.324;2023-05-11T01:01:10;99169.59;;;13.99;74.31
21236;BME280;10775;42.678;26.324;2023-05-11T01:03:36;99175.50;;;13.73;75.63
21236;BME280;10775;42.678;26.324;2023-05-11T01:09:10;99177.50;;;13.97;74.37
21236;BME280;10775;42.678;26.324;2023-05-11T01:16:36;99175.19;;;13.85;75.25
21236;BME280;10775;42.678;26.324;2023-05-11T01:19:10;99173.03;;;14.01;74.39
21236;BME280;10775;42.678;26.324;2023-05-11T01:21:38;99178.44;;;13.95;74.47
21236;BME280;10775;42.678;26.324;2023-05-11T01:24:16;99180.25;;;13.92;74.29
21236;BME280;10775;42.678;26.324;2023-05-11T01:27:02;99192.81;;;13.81;75.21
21236;BME280;10775;42.678;26.324;2023-05-11T01:29:41;99198.53;;;13.63;75.89
21236;BME280;10775;42.678;26.324;2023-05-11T01:32:21;99198.19;;;13.75;75.11
21236;BME280;10775;42.678;26.324;2023-05-11T01:34:52;99191.97;;;13.43;76.56
21236;BME280;10775;42.678;26.324;2023-05-11T01:37:20;99198.94;;;13.82;74.84
21236;BME280;10775;42.678;26.324;2023-05-11T01:39:56;99197.59;;;13.64;74.08
21236;BME280;10775;42.678;26.324;2023-05-11T01:42:40;99196.09;;;13.54;75.64
21236;BME280;10775;42.678;26.324;2023-05-11T01:45:09;99199.75;;;13.84;74.84
21236;BME280;10775;42.678;26.324;2023-05-11T01:47:37;99201.75;;;13.74;74.64
21236;BME280;10775;42.678;26.324;2023-05-11T01:50:06;99194.97;;;13.26;76.39
21236;BME280;10775;42.678;26.324;2023-05-11T01:52:34;99194.69;;;13.76;74.76
21236;BME280;10775;42.678;26.324;2023-05-11T01:55:03;99198.06;;;13.81;74.40
21236;BME280;10775;42.678;26.324;2023-05-11T01:57:30;99185.00;;;14.12;73.23
21236;BME280;10775;42.678;26.324;2023-05-11T01:59:58;99187.81;;;14.05;73.11
21236;BME280;10775;42.678;26.324;2023-05-11T02:02:25;99193.66;;;13.82;73.67
21236;BME280;10775;42.678;26.324;2023-05-11T02:04:52;99196.97;;;13.90;73.65
21236;BME280;10775;42.678;26.324;2023-05-11T02:07:19;99186.78;;;14.12;72.86
21236;BME280;10775;42.678;26.324;2023-05-11T02:09:46;99196.03;;;13.92;73.34
21236;BME280;10775;42.678;26.324;2023-05-11T02:12:14;99194.00;;;14.04;72.64
21236;BME280;10775;42.678;26.324;2023-05-11T02:14:42;99202.50;;;13.78;73.55
21236;BME280;10775;42.678;26.324;2023-05-11T02:17:08;99204.75;;;13.18;72.78
21236;BME280;10775;42.678;26.324;2023-05-11T02:19:36;99197.06;;;12.69;77.54
21236;BME280;10775;42.678;26.324;2023-05-11T02:22:03;99193.59;;;12.22;78.47
21236;BME280;10775;42.678;26.324;2023-05-11T02:24:29;99190.38;;;12.52;73.23
21236;BME280;10775;42.678;26.324;2023-05-11T02:26:56;99189.41;;;13.01;77.23
21236;BME280;10775;42.678;26.324;2023-05-11T02:29:21;99187.63;;;13.42;76.12
21236;BME280;10775;42.678;26.324;2023-05-11T02:31:55;99182.22;;;13.84;73.84
21236;BME280;10775;42.678;26.324;2023-05-11T02:34:27;99179.19;;;14.00;72.82
21236;BME280;10775;42.678;26.324;2023-05-11T02:36:57;99172.16;;;14.00;72.60
21236;BME280;10775;42.678;26.324;2023-05-11T02:39:32;99173.94;;;14.00;72.56
21236;BME280;10775;42.678;26.324;2023-05-11T02:42:04;99187.78;;;13.72;73.71
21236;BME280;10775;42.678;26.324;2023-05-11T02:44:34;99185.16;;;13.72;73.71
21236;BME280;10775;42.678;26.324;2023-05-11T02:47:02;99186.03;;;12.93;76.66
21236;BME280;10775;42.678;26.324;2023-05-11T02:49:30;99168.53;;;13.34;75.53
21236;BME280;10775;42.678;26.324;2023-05-11T02:51:58;99181.09;;;13.59;74.31
21236;BME280;10775;42.678;26.324;2023-05-11T02:54:26;99178.00;;;13.77;73.51
21236;BME280;10775;42.678;26.324;2023-05-11T02:56:53;99184.94;;;13.80;73.08
21236;BME280;10775;42.678;26.324;2023-05-11T02:59:21;99183.25;;;13.79;72.42
21236;BME280;10775;42.678;26.324;2023-05-11T03:01:47;99189.53;;;13.73;73.19
21236;BME280;10775;42.678;26.324;2023-05-11T03:04:13;99192.16;;;13.73;73.32
21236;BME280;10775;42.678;26.324;2023-05-11T03:06:39;99190.97;;;13.85;72.21
21236;BME280;10775;42.678;26.324;2023-05-11T03:09:05;99206.81;;;13.82;72.67
21236;BME280;10775;42.678;26.324;2023-05-11T03:11:30;99199.69;;;13.85;72.42
21236;BME280;10775;42.678;26.324;2023-05-11T03:13:56;99193.09;;;13.69;72.60
21236;BME280;10775;42.678;26.324;2023-05-11T03:16:23;99190.00;;;13.53;73.56
21236;BME280;10775;42.678;26.324;2023-05-11T03:18:49;99198.88;;;13.47;73.49
21236;BME280;10775;42.678;26.324;2023-05-11T03:21:17;99196.94;;;13.56;73.66
21236;BME280;10775;42.678;26.324;2023-05-11T03:23:46;99193.88;;;13.73;72.70
21236;BME280;10775;42.678;26.324;2023-05-11T03:26:12;99202.13;;;13.59;73.15
21236;BME280;10775;42.678;26.324;2023-05-11T03:28:42;99208.50;;;13.84;72.28
21236;BME280;10775;42.678;26.324;2023-05-11T03:31:08;99203.25;;;13.84;71.86
21236;BME280;10775;42.678;26.324;2023-05-11T03:33:34;99213.16;;;13.73;72.13
21236;BME280;10775;42.678;26.324;2023-05-11T03:35:59;99205.31;;;13.72;72.32
21236;BME280;10775;42.678;26.324;2023-05-11T03:38:27;99198.53;;;13.97;71.68
21236;BME280;10775;42.678;26.324;2023-05-11T03:40:53;99199.41;;;13.98;71.26
21236;BME280;10775;42.678;26.324;2023-05-11T03:43:20;99202.94;;;13.97;71.14
21236;BME280;10775;42.678;26.324;2023-05-11T03:45:48;99202.50;;;13.78;71.54
21236;BME280;10775;42.678;26.324;2023-05-11T03:48:16;99197.69;;;13.97;71.32
21236;BME280;10775;42.678;26.324;2023-05-11T03:50:42;99203.16;;;13.87;71.64
21236;BME280;10775;42.678;26.324;2023-05-11T03:53:09;99197.78;;;13.94;71.04
21236;BME280;10775;42.678;26.324;2023-05-11T03:55:35;99194.13;;;13.98;70.74
21236;BME280;10775;42.678;26.324;2023-05-11T03:58:05;99203.91;;;13.92;70.93
21236;BME280;10775;42.678;26.324;2023-05-11T04:00:31;99194.06;;;14.01;70.90
21236;BME280;10775;42.678;26.324;2023-05-11T04:02:56;99188.88;;;13.98;70.49
21236;BME280;10775;42.678;26.324;2023-05-11T04:05:21;99192.91;;;13.78;71.05
21236;BME280;10775;42.678;26.324;2023-05-11T04:07:49;99205.69;;;13.90;71.16
21236;BME280;10775;42.678;26.324;2023-05-11T04:10:15;99193.81;;;14.10;70.37
21236;BME280;10775;42.678;26.324;2023-05-11T04:12:40;99195.41;;;14.17;69.87
21236;BME280;10775;42.678;26.324;2023-05-11T04:15:06;99191.09;;;14.14;69.65
21236;BME280;10775;42.678;26.324;2023-05-11T04:17:32;99202.47;;;14.15;69.81
21236;BME280;10775;42.678;26.324;2023-05-11T04:19:57;99200.69;;;14.16;69.61
21236;BME280;10775;42.678;26.324;2023-05-11T04:22:22;99202.91;;;14.31;69.17
21236;BME280;10775;42.678;26.324;2023-05-11T04:24:48;99207.31;;;14.30;68.98
21236;BME280;10775;42.678;26.324;2023-05-11T04:27:13;99210.91;;;14.26;68.96
21236;BME280;10775;42.678;26.324;2023-05-11T04:29:40;99222.19;;;13.97;70.05
21236;BME280;10775;42.678;26.324;2023-05-11T04:32:06;99220.50;;;13.95;70.30
21236;BME280;10775;42.678;26.324;2023-05-11T04:34:31;99221.28;;;13.98;70.39
21236;BME280;10775;42.678;26.324;2023-05-11T04:36:57;99217.41;;;13.79;69.92
21236;BME280;10775;42.678;26.324;2023-05-11T04:39:22;99223.78;;;13.68;71.23
21236;BME280;10775;42.678;26.324;2023-05-11T04:41:47;99220.34;;;14.01;70.45
21236;BME280;10775;42.678;26.324;2023-05-11T04:44:13;99214.56;;;14.21;69.40
21236;BME280;10775;42.678;26.324;2023-05-11T04:46:39;99219.63;;;14.28;68.92
21236;BME280;10775;42.678;26.324;2023-05-11T04:49:04;99224.38;;;14.47;68.33
21236;BME280;10775;42.678;26.324;2023-05-11T04:51:30;99220.38;;;14.33;68.47
21236;BME280;10775;42.678;26.324;2023-05-11T04:53:56;99216.19;;;14.59;67.82
21236;BME280;10775;42.678;26.324;2023-05-11T04:56:21;99226.03;;;14.51;66.26
21236;BME280;10775;42.678;26.324;2023-05-11T04:58:47;99224.78;;;14.33;67.17
21236;BME280;10775;42.678;26.324;2023-05-11T05:01:12;99230.94;;;13.98;66.36
21236;BME280;10775;42.678;26.324;2023-05-11T05:03:38;99225.28;;;14.47;67.66
21236;BME280;10775;42.678;26.324;2023-05-11T05:06:03;99224.09;;;14.59;65.99
21236;BME280;10775;42.678;26.324;2023-05-11T05:08:29;99223.75;;;14.39;67.97
21236;BME280;10775;42.678;26.324;2023-05-11T05:10:54;99220.88;;;14.48;66.38
21236;BME280;10775;42.678;26.324;2023-05-11T05:13:20;99225.91;;;14.57;67.29
21236;BME280;10775;42.678;26.324;2023-05-11T05:15:45;99226.84;;;14.54;66.99
21236;BME280;10775;42.678;26.324;2023-05-11T05:18:10;99225.84;;;14.26;66.69
21236;BME280;10775;42.678;26.324;2023-05-11T05:20:36;99248.00;;;14.17;68.52
21236;BME280;10775;42.678;26.324;2023-05-11T05:23:01;99232.81;;;14.61;67.06
21236;BME280;10775;42.678;26.324;2023-05-11T05:25:27;99243.25;;;14.64;66.54
21236;BME280;10775;42.678;26.324;2023-05-11T05:27:52;99237.22;;;14.92;65.72
21236;BME280;10775;42.678;26.324;2023-05-11T05:30:18;99240.72;;;14.61;66.94
21236;BME280;10775;42.678;26.324;2023-05-11T05:32:44;99238.03;;;14.94;68.31
21236;BME280;10775;42.678;26.324;2023-05-11T05:35:10;99235.47;;;15.50;66.15
21236;BME280;10775;42.678;26.324;2023-05-11T05:37:35;99249.06;;;15.64;66.38
21236;BME280;10775;42.678;26.324;2023-05-11T05:40:03;99244.69;;;15.93;66.00
21236;BME280;10775;42.678;26.324;2023-05-11T05:42:28;99238.84;;;15.83;66.40
21236;BME280;10775;42.678;26.324;2023-05-11T05:44:53;99230.22;;;15.50;66.65
21236;BME280;10775;42.678;26.324;2023-05-11T05:47:19;99244.53;;;15.98;65.90
21236;BME280;10775;42.678;26.324;2023-05-11T05:49:44;99236.63;;;15.70;66.94
21236;BME280;10775;42.678;26.324;2023-05-11T05:52:10;99240.81;;;16.03;65.88
21236;BME280;10775;42.678;26.324;2023-05-11T05:54:35;99238.34;;;15.99;66.19
21236;BME280;10775;42.678;26.324;2023-05-11T05:57:01;99227.94;;;16.21;65.55
21236;BME280;10775;42.678;26.324;2023-05-11T05:59:26;99237.16;;;16.07;65.84
21236;BME280;10775;42.678;26.324;2023-05-11T06:01:52;99238.56;;;14.43;62.12
21236;BME280;10775;42.678;26.324;2023-05-11T06:04:17;99237.91;;;14.98;69.67
21236;BME280;10775;42.678;26.324;2023-05-11T06:06:43;99237.84;;;15.88;66.07
21236;BME280;10775;42.678;26.324;2023-05-11T06:09:08;99235.22;;;16.13;65.04
21236;BME280;10775;42.678;26.324;2023-05-11T06:11:34;99239.81;;;16.33;63.90
21236;BME280;10775;42.678;26.324;2023-05-11T06:13:59;99239.41;;;15.93;64.35
21236;BME280;10775;42.678;26.324;2023-05-11T06:16:25;99257.41;;;16.07;64.19
21236;BME280;10775;42.678;26.324;2023-05-11T06:18:51;99240.38;;;16.42;62.62
21236;BME280;10775;42.678;26.324;2023-05-11T06:21:17;99244.47;;;16.26;62.57
21236;BME280;10775;42.678;26.324;2023-05-11T06:23:42;99244.53;;;15.98;62.44
21236;BME280;10775;42.678;26.324;2023-05-11T06:26:08;99241.56;;;15.52;65.59
21236;BME280;10775;42.678;26.324;2023-05-11T06:28:33;99250.66;;;15.98;64.33
21236;BME280;10775;42.678;26.324;2023-05-11T06:30:59;99240.94;;;16.00;64.14
21236;BME280;10775;42.678;26.324;2023-05-11T06:33:24;99237.88;;;15.86;65.53
21236;BME280;10775;42.678;26.324;2023-05-11T06:35:50;99249.75;;;15.43;65.99
21236;BME280;10775;42.678;26.324;2023-05-11T06:38:16;99245.69;;;16.16;65.01
21236;BME280;10775;42.678;26.324;2023-05-11T06:40:41;99238.81;;;16.37;64.54
21236;BME280;10775;42.678;26.324;2023-05-11T06:43:07;99247.88;;;16.55;64.10
21236;BME280;10775;42.678;26.324;2023-05-11T06:45:32;99245.38;;;16.75;63.86
21236;BME280;10775;42.678;26.324;2023-05-11T06:47:58;99249.97;;;18.08;60.15
21236;BME280;10775;42.678;26.324;2023-05-11T06:50:23;99241.50;;;18.00;59.82
21236;BME280;10775;42.678;26.324;2023-05-11T06:52:49;99249.72;;;17.25;59.39
21236;BME280;10775;42.678;26.324;2023-05-11T06:55:14;99249.16;;;15.33;62.01
21236;BME280;10775;42.678;26.324;2023-05-11T06:57:39;99252.97;;;15.81;65.87
21236;BME280;10775;42.678;26.324;2023-05-11T07:00:05;99250.50;;;16.55;64.81
21236;BME280;10775;42.678;26.324;2023-05-11T07:02:31;99243.75;;;17.20;62.90
21236;BME280;10775;42.678;26.324;2023-05-11T07:04:57;99244.63;;;17.88;60.29
21236;BME280;10775;42.678;26.324;2023-05-11T07:07:23;99245.25;;;17.03;60.98
21236;BME280;10775;42.678;26.324;2023-05-11T07:09:48;99245.06;;;16.59;62.76
21236;BME280;10775;42.678;26.324;2023-05-11T07:12:14;99240.50;;;18.02;62.80
21236;BME280;10775;42.678;26.324;2023-05-11T07:14:39;99224.81;;;16.85;62.70
21236;BME280;10775;42.678;26.324;2023-05-11T07:17:05;99226.31;;;18.25;61.59
21236;BME280;10775;42.678;26.324;2023-05-11T07:19:30;99235.19;;;17.36;63.64
21236;BME280;10775;42.678;26.324;2023-05-11T07:21:56;99235.59;;;17.26;63.32
21236;BME280;10775;42.678;26.324;2023-05-11T07:24:22;99233.25;;;17.18;64.14
21236;BME280;10775;42.678;26.324;2023-05-11T07:26:47;99233.00;;;17.92;63.66
21236;BME280;10775;42.678;26.324;2023-05-11T07:29:14;99227.22;;;18.45;62.00
21236;BME280;10775;42.678;26.324;2023-05-11T07:31:40;99221.56;;;18.73;57.36
21236;BME280;10775;42.678;26.324;2023-05-11T07:34:05;99234.63;;;17.28;59.40
21236;BME280;10775;42.678;26.324;2023-05-11T07:36:31;99219.75;;;18.14;59.08
21236;BME280;10775;42.678;26.324;2023-05-11T07:38:57;99221.44;;;18.15;54.83
21236;BME280;10775;42.678;26.324;2023-05-11T07:41:23;99235.75;;;17.89;57.76
21236;BME280;10775;42.678;26.324;2023-05-11T07:43:52;99235.06;;;18.06;60.12
21236;BME280;10775;42.678;26.324;2023-05-11T07:46:17;99222.53;;;17.89;60.92
21236;BME280;10775;42.678;26.324;2023-05-11T07:48:43;99233.16;;;17.43;58.05
21236;BME280;10775;42.678;26.324;2023-05-11T07:51:09;99230.41;;;17.46;60.11
21236;BME280;10775;42.678;26.324;2023-05-11T07:53:35;99236.59;;;17.23;59.71
21236;BME280;10775;42.678;26.324;2023-05-11T07:56:00;99246.56;;;16.16;63.51
21236;BME280;10775;42.678;26.324;2023-05-11T07:58:27;99237.44;;;17.00;64.87
21236;BME280;10775;42.678;26.324;2023-05-11T08:00:53;99223.75;;;18.63;60.31
21236;BME280;10775;42.678;26.324;2023-05-11T08:03:18;99231.31;;;17.89;61.03
21236;BME280;10775;42.678;26.324;2023-05-11T08:05:44;99232.75;;;17.30;63.93
21236;BME280;10775;42.678;26.324;2023-05-11T08:08:09;99235.09;;;16.92;64.20
21236;BME280;10775;42.678;26.324;2023-05-11T08:10:35;99234.38;;;17.34;64.04
21236;BME280;10775;42.678;26.324;2023-05-11T08:13:01;99228.75;;;16.97;62.14
21236;BME280;10775;42.678;26.324;2023-05-11T08:15:26;99223.47;;;16.48;63.29
21236;BME280;10775;42.678;26.324;2023-05-11T08:17:52;99222.44;;;17.24;64.29
21236;BME280;10775;42.678;26.324;2023-05-11T08:20:18;99221.28;;;17.75;57.10
21236;BME280;10775;42.678;26.324;2023-05-11T08:22:43;99216.50;;;17.63;62.91
21236;BME280;10775;42.678;26.324;2023-05-11T08:25:09;99211.19;;;18.07;57.10
21236;BME280;10775;42.678;26.324;2023-05-11T08:27:35;99205.81;;;19.09;58.35
21236;BME280;10775;42.678;26.324;2023-05-11T08:30:00;99199.63;;;19.47;53.99
21236;BME280;10775;42.678;26.324;2023-05-11T08:32:26;99203.25;;;18.48;56.15
21236;BME280;10775;42.678;26.324;2023-05-11T08:34:51;99201.25;;;18.12;59.02
21236;BME280;10775;42.678;26.324;2023-05-11T08:37:17;99215.41;;;17.91;55.23
21236;BME280;10775;42.678;26.324;2023-05-11T08:39:43;99206.75;;;18.69;52.56
21236;BME280;10775;42.678;26.324;2023-05-11T08:42:09;99211.56;;;19.38;53.59
21236;BME280;10775;42.678;26.324;2023-05-11T08:44:38;99200.69;;;19.98;52.82
21236;BME280;10775;42.678;26.324;2023-05-11T08:47:06;99199.47;;;19.50;53.72
21236;BME280;10775;42.678;26.324;2023-05-11T08:49:32;99205.50;;;18.97;55.70
21236;BME280;10775;42.678;26.324;2023-05-11T08:51:59;99197.28;;;18.84;53.80
21236;BME280;10775;42.678;26.324;2023-05-11T08:54:27;99195.41;;;18.86;55.26
21236;BME280;10775;42.678;26.324;2023-05-11T08:56:53;99195.88;;;18.36;53.16
21236;BME280;10775;42.678;26.324;2023-05-11T08:59:19;99199.09;;;18.22;57.43
21236;BME280;10775;42.678;26.324;2023-05-11T09:01:46;99196.50;;;19.01;55.28
21236;BME280;10775;42.678;26.324;2023-05-11T09:04:12;99189.34;;;18.43;57.04
21236;BME280;10775;42.678;26.324;2023-05-11T09:06:39;99197.09;;;19.07;52.14
21236;BME280;10775;42.678;26.324;2023-05-11T09:09:05;99196.56;;;19.37;50.82
21236;BME280;10775;42.678;26.324;2023-05-11T09:11:31;99185.66;;;18.27;56.92
21236;BME280;10775;42.678;26.324;2023-05-11T09:13:57;99185.31;;;18.75;56.69
21236;BME280;10775;42.678;26.324;2023-05-11T09:16:23;99186.13;;;18.57;54.20
21236;BME280;10775;42.678;26.324;2023-05-11T09:18:50;99186.28;;;18.73;55.34
21236;BME280;10775;42.678;26.324;2023-05-11T09:21:16;99178.09;;;19.17;51.17
21236;BME280;10775;42.678;26.324;2023-05-11T09:23:42;99183.66;;;18.52;55.34
21236;BME280;10775;42.678;26.324;2023-05-11T09:26:34;99183.03;;;18.27;49.02
21236;BME280;10775;42.678;26.324;2023-05-11T09:29:00;99173.75;;;18.37;56.26
21236;BME280;10775;42.678;26.324;2023-05-11T09:31:45;99183.06;;;19.05;53.98
21236;BME280;10775;42.678;26.324;2023-05-11T09:34:11;99169.50;;;19.30;53.76
21236;BME280;10775;42.678;26.324;2023-05-11T09:36:38;99177.97;;;18.61;52.89
21236;BME280;10775;42.678;26.324;2023-05-11T09:39:04;99177.88;;;19.21;54.33
21236;BME280;10775;42.678;26.324;2023-05-11T09:41:30;99173.88;;;19.13;54.82
21236;BME280;10775;42.678;26.324;2023-05-11T09:44:09;99185.69;;;19.05;53.91
21236;BME280;10775;42.678;26.324;2023-05-11T09:46:40;99177.25;;;19.52;53.41
21236;BME280;10775;42.678;26.324;2023-05-11T09:49:05;99172.91;;;19.51;50.61
21236;BME280;10775;42.678;26.324;2023-05-11T09:51:37;99173.50;;;19.39;53.37
21236;BME280;10775;42.678;26.324;2023-05-11T09:54:17;99174.66;;;19.33;53.61
21236;BME280;10775;42.678;26.324;2023-05-11T09:56:47;99166.84;;;19.11;52.85
21236;BME280;10775;42.678;26.324;2023-05-11T09:59:39;99175.22;;;19.21;52.30
21236;BME280;10775;42.678;26.324;2023-05-11T10:02:27;99174.66;;;19.33;52.38
21236;BME280;10775;42.678;26.324;2023-05-11T10:04:57;99161.19;;;19.19;51.62
21236;BME280;10775;42.678;26.324;2023-05-11T10:07:33;99155.53;;;18.50;53.77
21236;BME280;10775;42.678;26.324;2023-05-11T10:10:01;99155.41;;;18.92;52.32
21236;BME280;10775;42.678;26.324;2023-05-11T10:12:28;99161.47;;;18.75;50.21
21236;BME280;10775;42.678;26.324;2023-05-11T10:15:01;99151.00;;;18.33;49.89
21236;BME280;10775;42.678;26.324;2023-05-11T10:17:27;99144.22;;;19.04;50.01
21236;BME280;10775;42.678;26.324;2023-05-11T10:19:54;99143.47;;;18.63;52.11
21236;BME280;10775;42.678;26.324;2023-05-11T10:22:21;99149.81;;;18.98;54.98
21236;BME280;10775;42.678;26.324;2023-05-11T10:24:47;99141.09;;;19.15;55.06
21236;BME280;10775;42.678;26.324;2023-05-11T10:27:13;99154.28;;;18.38;55.15
21236;BME280;10775;42.678;26.324;2023-05-11T10:29:38;99151.69;;;19.15;55.38
21236;BME280;10775;42.678;26.324;2023-05-11T10:32:06;99150.31;;;19.43;55.27
21236;BME280;10775;42.678;26.324;2023-05-11T10:34:32;99142.31;;;19.44;55.25
21236;BME280;10775;42.678;26.324;2023-05-11T10:37:01;99154.09;;;19.39;51.57
21236;BME280;10775;42.678;26.324;2023-05-11T10:39:28;99142.09;;;19.13;49.59
21236;BME280;10775;42.678;26.324;2023-05-11T10:47:18;99152.97;;;19.06;51.37
21236;BME280;10775;42.678;26.324;2023-05-11T10:52:51;99148.03;;;18.80;50.66
21236;BME280;10775;42.678;26.324;2023-05-11T11:01:40;99153.88;;;19.43;56.23
21236;BME280;10775;42.678;26.324;2023-05-11T11:04:08;99149.41;;;19.80;53.86
21236;BME280;10775;42.678;26.324;2023-05-11T11:06:35;99144.25;;;20.12;50.76
21236;BME280;10775;42.678;26.324;2023-05-11T11:09:10;99137.06;;;19.96;56.09
21236;BME280;10775;42.678;26.324;2023-05-11T11:11:45;99139.97;;;19.74;57.08
21236;BME280;10775;42.678;26.324;2023-05-11T11:14:17;99143.72;;;19.88;56.36
21236;BME280;10775;42.678;26.324;2023-05-11T11:17:23;99150.66;;;19.73;52.55
21236;BME280;10775;42.678;26.324;2023-05-11T11:19:48;99142.91;;;19.68;56.06
21236;BME280;10775;42.678;26.324;2023-05-11T11:24:59;99143.66;;;18.79;48.38
21236;BME280;10775;42.678;26.324;2023-05-11T11:27:57;99148.66;;;19.23;58.45
21236;BME280;10775;42.678;26.324;2023-05-11T11:30:28;99147.78;;;19.41;57.86
21236;BME280;10775;42.678;26.324;2023-05-11T11:38:05;99132.78;;;18.85;57.65
21236;BME280;10775;42.678;26.324;2023-05-11T11:40:44;99141.84;;;19.36;52.97
21236;BME280;10775;42.678;26.324;2023-05-11T11:43:18;99133.66;;;19.77;59.04
21236;BME280;10775;42.678;26.324;2023-05-11T11:48:33;99123.94;;;19.59;55.26
21236;BME280;10775;42.678;26.324;2023-05-11T11:51:05;99127.72;;;19.89;59.06
21236;BME280;10775;42.678;26.324;2023-05-11T11:59:01;99116.59;;;19.46;53.52
21236;BME280;10775;42.678;26.324;2023-05-11T12:01:36;99109.16;;;19.72;58.82
21236;BME280;10775;42.678;26.324;2023-05-11T12:04:30;99119.53;;;19.40;59.73
21236;BME280;10775;42.678;26.324;2023-05-11T12:06:57;99113.19;;;19.62;58.61
21236;BME280;10775;42.678;26.324;2023-05-11T12:09:24;99114.44;;;20.07;58.87
21236;BME280;10775;42.678;26.324;2023-05-11T12:11:50;99099.91;;;20.14;52.97
21236;BME280;10775;42.678;26.324;2023-05-11T12:14:16;99089.72;;;20.22;52.86
21236;BME280;10775;42.678;26.324;2023-05-11T12:16:42;99087.94;;;19.72;57.13
21236;BME280;10775;42.678;26.324;2023-05-11T12:19:07;99089.13;;;19.47;59.91
21236;BME280;10775;42.678;26.324;2023-05-11T12:21:33;99085.06;;;19.76;59.28
21236;BME280;10775;42.678;26.324;2023-05-11T12:24:03;99079.38;;;19.65;56.12
21236;BME280;10775;42.678;26.324;2023-05-11T12:26:32;99074.28;;;19.97;58.99
21236;BME280;10775;42.678;26.324;2023-05-11T12:29:10;99079.47;;;19.46;59.47
21236;BME280;10775;42.678;26.324;2023-05-11T12:31:38;99087.44;;;19.46;58.57
21236;BME280;10775;42.678;26.324;2023-05-11T12:34:04;99093.34;;;19.51;55.91
21236;BME280;10775;42.678;26.324;2023-05-11T12:36:29;99073.53;;;19.41;60.30
21236;BME280;10775;42.678;26.324;2023-05-11T12:38:56;99074.75;;;19.17;61.30
21236;BME280;10775;42.678;26.324;2023-05-11T12:41:22;99074.13;;;19.29;60.72
21236;BME280;10775;42.678;26.324;2023-05-11T12:43:49;99077.22;;;19.02;55.98
21236;BME280;10775;42.678;26.324;2023-05-11T12:46:16;99070.38;;;18.79;58.57
21236;BME280;10775;42.678;26.324;2023-05-11T12:48:44;99052.56;;;19.54;59.38
21236;BME280;10775;42.678;26.324;2023-05-11T12:51:10;99069.06;;;19.24;53.35
21236;BME280;10775;42.678;26.324;2023-05-11T12:53:35;99069.44;;;19.17;56.88
21236;BME280;10775;42.678;26.324;2023-05-11T12:56:02;99082.16;;;18.72;56.79
21236;BME280;10775;42.678;26.324;2023-05-11T12:58:35;99085.56;;;18.55;50.56
21236;BME280;10775;42.678;26.324;2023-05-11T13:01:03;99080.50;;;19.07;52.56
21236;BME280;10775;42.678;26.324;2023-05-11T13:03:31;99079.19;;;19.16;55.66
21236;BME280;10775;42.678;26.324;2023-05-11T13:06:05;99072.75;;;18.07;56.59
21236;BME280;10775;42.678;26.324;2023-05-11T13:08:32;99066.41;;;18.88;56.00
21236;BME280;10775;42.678;26.324;2023-05-11T13:13:47;99075.84;;;19.13;55.02
21236;BME280;10775;42.678;26.324;2023-05-11T13:16:31;99062.34;;;19.17;46.40
21236;BME280;10775;42.678;26.324;2023-05-11T13:21:23;99057.78;;;19.55;51.28
21236;BME280;10775;42.678;26.324;2023-05-11T13:23:49;99062.97;;;18.86;52.02
21236;BME280;10775;42.678;26.324;2023-05-11T13:26:23;99058.59;;;19.04;53.59
21236;BME280;10775;42.678;26.324;2023-05-11T13:28:48;99064.22;;;19.32;55.79
21236;BME280;10775;42.678;26.324;2023-05-11T13:31:14;99057.63;;;19.41;54.58
21236;BME280;10775;42.678;26.324;2023-05-11T13:33:40;99061.91;;;19.44;49.41
21236;BME280;10775;42.678;26.324;2023-05-11T13:36:05;99062.66;;;19.11;55.85